SDM6574 UNKL-ULLI
Flight info
| Callsign | SDM6574 |
|---|---|
| Flight time | 4h 33m |
| Altitude | 34000 |
| Route | BASEL B938 SURIP T631 NWK M59 SORLI P989 NETLU T756 ODNUS L870 ADLIN T242 AMDEN P979 BEPOL |
| Aircraft | A319/M-SDE3FGHIRWY/LB1 |
Departure
| Time | 2026-05-06 23:07 |
|---|---|
| Airport | Krasnoyarsk International Airport (UNKL) |
Arrival
| Time | 2026-05-07 03:41 |
|---|---|
| Airport | Pulkovo Airport (ULLI) |
| Time | Latitude | Longitude | Altitude | Speed | Heading |
|---|---|---|---|---|---|
| 2026-05-06 22:16 | 56.17954 | 92.48541 | 947 ft | 0 kts | 23° |
| 2026-05-06 22:54 | 56.17948 | 92.48535 | 947 ft | 2 kts | 35° |
| 2026-05-06 22:54 | 56.17940 | 92.48526 | 947 ft | 1 kts | 23° |
| 2026-05-06 22:55 | 56.17926 | 92.48518 | 947 ft | 2 kts | 12° |
| 2026-05-06 22:55 | 56.17912 | 92.48515 | 947 ft | 2 kts | 359° |
| 2026-05-06 22:55 | 56.17896 | 92.48518 | 947 ft | 2 kts | 346° |
| 2026-05-06 22:55 | 56.17882 | 92.48526 | 947 ft | 2 kts | 334° |
| 2026-05-06 22:56 | 56.17870 | 92.48540 | 947 ft | 2 kts | 322° |
| 2026-05-06 22:56 | 56.17858 | 92.48558 | 947 ft | 2 kts | 310° |
| 2026-05-06 22:56 | 56.17849 | 92.48579 | 947 ft | 2 kts | 298° |
| 2026-05-06 22:56 | 56.17846 | 92.48592 | 947 ft | 1 kts | 291° |
| 2026-05-06 22:57 | 56.17844 | 92.48598 | 947 ft | 0 kts | 292° |
| 2026-05-06 22:57 | 56.17845 | 92.48598 | 947 ft | 0 kts | 292° |
| 2026-05-06 23:00 | 56.17845 | 92.48596 | 947 ft | 0 kts | 292° |
| 2026-05-06 23:01 | 56.17849 | 92.48582 | 947 ft | 2 kts | 292° |
| 2026-05-06 23:01 | 56.17858 | 92.48537 | 947 ft | 5 kts | 285° |
| 2026-05-06 23:01 | 56.17846 | 92.48463 | 947 ft | 7 kts | 222° |
| 2026-05-06 23:01 | 56.17798 | 92.48418 | 947 ft | 8 kts | 203° |
| 2026-05-06 23:02 | 56.17757 | 92.48349 | 947 ft | 8 kts | 266° |
| 2026-05-06 23:02 | 56.17778 | 92.48238 | 947 ft | 9 kts | 292° |
| 2026-05-06 23:02 | 56.17806 | 92.48119 | 947 ft | 10 kts | 292° |
| 2026-05-06 23:02 | 56.17836 | 92.47993 | 947 ft | 11 kts | 293° |
| 2026-05-06 23:03 | 56.17867 | 92.47861 | 947 ft | 11 kts | 292° |
| 2026-05-06 23:03 | 56.17899 | 92.47719 | 947 ft | 12 kts | 292° |
| 2026-05-06 23:03 | 56.17934 | 92.47572 | 947 ft | 12 kts | 292° |
| 2026-05-06 23:03 | 56.17970 | 92.47422 | 947 ft | 13 kts | 292° |
| 2026-05-06 23:04 | 56.18008 | 92.47266 | 947 ft | 13 kts | 292° |
| 2026-05-06 23:04 | 56.18045 | 92.47106 | 947 ft | 14 kts | 292° |
| 2026-05-06 23:04 | 56.18085 | 92.46944 | 947 ft | 14 kts | 294° |
| 2026-05-06 23:04 | 56.18118 | 92.46804 | 947 ft | 7 kts | 291° |
| 2026-05-06 23:05 | 56.18105 | 92.46726 | 947 ft | 7 kts | 209° |
| 2026-05-06 23:05 | 56.18051 | 92.46687 | 947 ft | 8 kts | 202° |
| 2026-05-06 23:05 | 56.17992 | 92.46642 | 947 ft | 9 kts | 202° |
| 2026-05-06 23:05 | 56.17950 | 92.46613 | 947 ft | 3 kts | 180° |
| 2026-05-06 23:06 | 56.17930 | 92.46647 | 947 ft | 4 kts | 112° |
| 2026-05-06 23:06 | 56.17926 | 92.46660 | 947 ft | 0 kts | 112° |
| 2026-05-06 23:06 | 56.17867 | 92.46912 | 947 ft | 57 kts | 112° |
| 2026-05-06 23:07 | 56.17621 | 92.47952 | 948 ft | 123 kts | 112° |
| 2026-05-06 23:07 | 56.17206 | 92.49683 | 1008 ft | 171 kts | 113° |
| 2026-05-06 23:07 | 56.16720 | 92.51656 | 1584 ft | 174 kts | 114° |
| 2026-05-06 23:07 | 56.16212 | 92.53612 | 2251 ft | 177 kts | 120° |
| 2026-05-06 23:08 | 56.15319 | 92.55032 | 2898 ft | 178 kts | 162° |
| 2026-05-06 23:08 | 56.14094 | 92.55080 | 3453 ft | 180 kts | 198° |
| 2026-05-06 23:08 | 56.13048 | 92.53809 | 3735 ft | 193 kts | 234° |
| 2026-05-06 23:08 | 56.12616 | 92.51479 | 4006 ft | 206 kts | 273° |
| 2026-05-06 23:09 | 56.13145 | 92.49077 | 4218 ft | 222 kts | 315° |
| 2026-05-06 23:09 | 56.14543 | 92.47734 | 4540 ft | 238 kts | 346° |
| 2026-05-06 23:09 | 56.16208 | 92.47099 | 4917 ft | 255 kts | 349° |
| 2026-05-06 23:09 | 56.18006 | 92.46498 | 5469 ft | 265 kts | 349° |
| 2026-05-06 23:10 | 56.19796 | 92.45861 | 6210 ft | 266 kts | 348° |
| 2026-05-06 23:10 | 56.21556 | 92.44778 | 6935 ft | 270 kts | 330° |
| 2026-05-06 23:10 | 56.23094 | 92.42866 | 7674 ft | 272 kts | 323° |
| 2026-05-06 23:10 | 56.24577 | 92.40764 | 8389 ft | 275 kts | 322° |
| 2026-05-06 23:11 | 56.26099 | 92.38601 | 9112 ft | 278 kts | 323° |
| 2026-05-06 23:11 | 56.27623 | 92.36472 | 9825 ft | 281 kts | 324° |
| 2026-05-06 23:11 | 56.29178 | 92.34330 | 10407 ft | 289 kts | 324° |
| 2026-05-06 23:11 | 56.30835 | 92.32072 | 10723 ft | 306 kts | 324° |
| 2026-05-06 23:12 | 56.32582 | 92.29702 | 11020 ft | 323 kts | 324° |
| 2026-05-06 23:12 | 56.34409 | 92.27226 | 11299 ft | 339 kts | 324° |
| 2026-05-06 23:12 | 56.36340 | 92.24609 | 11575 ft | 354 kts | 324° |
| 2026-05-06 23:12 | 56.38344 | 92.21889 | 12026 ft | 363 kts | 324° |
| 2026-05-06 23:13 | 56.40333 | 92.19186 | 12644 ft | 366 kts | 324° |
| 2026-05-06 23:13 | 56.42379 | 92.16405 | 13267 ft | 368 kts | 324° |
| 2026-05-06 23:13 | 56.44433 | 92.13612 | 13857 ft | 371 kts | 324° |
| 2026-05-06 23:13 | 56.46471 | 92.10839 | 14422 ft | 374 kts | 325° |
| 2026-05-06 23:14 | 56.48557 | 92.07999 | 14986 ft | 376 kts | 325° |
| 2026-05-06 23:14 | 56.50653 | 92.05142 | 15535 ft | 379 kts | 325° |
| 2026-05-06 23:14 | 56.52769 | 92.02253 | 16068 ft | 382 kts | 325° |
| 2026-05-06 23:14 | 56.54867 | 91.99386 | 16579 ft | 385 kts | 325° |
| 2026-05-06 23:15 | 56.57029 | 91.96426 | 17089 ft | 387 kts | 325° |
| 2026-05-06 23:15 | 56.59152 | 91.93516 | 17573 ft | 390 kts | 325° |
| 2026-05-06 23:15 | 56.61318 | 91.90543 | 18052 ft | 392 kts | 325° |
| 2026-05-06 23:15 | 56.63501 | 91.87542 | 18518 ft | 394 kts | 325° |
| 2026-05-06 23:16 | 56.65680 | 91.84542 | 18967 ft | 397 kts | 325° |
| 2026-05-06 23:16 | 56.67896 | 91.81489 | 19404 ft | 399 kts | 325° |
| 2026-05-06 23:16 | 56.70111 | 91.78428 | 19830 ft | 401 kts | 325° |
| 2026-05-06 23:16 | 56.72314 | 91.75381 | 20238 ft | 404 kts | 325° |
| 2026-05-06 23:17 | 56.74558 | 91.72271 | 20646 ft | 406 kts | 325° |
| 2026-05-06 23:17 | 56.76822 | 91.69142 | 20952 ft | 410 kts | 325° |
| 2026-05-06 23:17 | 56.79087 | 91.66025 | 21226 ft | 415 kts | 325° |
| 2026-05-06 23:17 | 56.81418 | 91.62811 | 21587 ft | 418 kts | 325° |
| 2026-05-06 23:18 | 56.83739 | 91.59607 | 21961 ft | 419 kts | 326° |
| 2026-05-06 23:18 | 56.86053 | 91.56406 | 22314 ft | 421 kts | 326° |
| 2026-05-06 23:18 | 56.88405 | 91.53149 | 22658 ft | 423 kts | 325° |
| 2026-05-06 23:18 | 56.90742 | 91.49903 | 22992 ft | 425 kts | 326° |
| 2026-05-06 23:19 | 56.93104 | 91.46619 | 23322 ft | 427 kts | 325° |
| 2026-05-06 23:19 | 56.95357 | 91.43134 | 23646 ft | 431 kts | 320° |
| 2026-05-06 23:19 | 56.97480 | 91.39145 | 23974 ft | 435 kts | 314° |
| 2026-05-06 23:19 | 56.99371 | 91.34825 | 24300 ft | 438 kts | 309° |
| 2026-05-06 23:20 | 57.01149 | 91.30317 | 24629 ft | 440 kts | 308° |
| 2026-05-06 23:20 | 57.02920 | 91.25710 | 24953 ft | 442 kts | 308° |
| 2026-05-06 23:20 | 57.04686 | 91.21095 | 25268 ft | 444 kts | 307° |
| 2026-05-06 23:20 | 57.06461 | 91.16464 | 25579 ft | 445 kts | 307° |
| 2026-05-06 23:21 | 57.08254 | 91.11791 | 25866 ft | 447 kts | 307° |
| 2026-05-06 23:21 | 57.10044 | 91.07126 | 26160 ft | 449 kts | 307° |
| 2026-05-06 23:21 | 57.11856 | 91.02425 | 26547 ft | 448 kts | 307° |
| 2026-05-06 23:21 | 57.13650 | 90.97777 | 26965 ft | 447 kts | 307° |
| 2026-05-06 23:22 | 57.15429 | 90.93152 | 27370 ft | 446 kts | 307° |
| 2026-05-06 23:22 | 57.17222 | 90.88468 | 27768 ft | 445 kts | 307° |
| 2026-05-06 23:22 | 57.18996 | 90.83818 | 28171 ft | 445 kts | 307° |
| 2026-05-06 23:22 | 57.20764 | 90.79171 | 28584 ft | 444 kts | 307° |
| 2026-05-06 23:23 | 57.22532 | 90.74514 | 28999 ft | 442 kts | 307° |
| 2026-05-06 23:23 | 57.24285 | 90.69888 | 29406 ft | 441 kts | 307° |
| 2026-05-06 23:23 | 57.26033 | 90.65265 | 29808 ft | 441 kts | 307° |
| 2026-05-06 23:23 | 57.27789 | 90.60611 | 30212 ft | 440 kts | 307° |
| 2026-05-06 23:24 | 57.29510 | 90.56044 | 30599 ft | 439 kts | 307° |
| 2026-05-06 23:24 | 57.31258 | 90.51394 | 30993 ft | 438 kts | 307° |
| 2026-05-06 23:24 | 57.32983 | 90.46796 | 31383 ft | 437 kts | 307° |
| 2026-05-06 23:24 | 57.34716 | 90.42165 | 31764 ft | 436 kts | 307° |
| 2026-05-06 23:25 | 57.36431 | 90.37578 | 32129 ft | 435 kts | 307° |
| 2026-05-06 23:25 | 57.38155 | 90.32954 | 32459 ft | 435 kts | 306° |
| 2026-05-06 23:25 | 57.39856 | 90.28371 | 32728 ft | 437 kts | 306° |
| 2026-05-06 23:25 | 57.41572 | 90.23740 | 32974 ft | 438 kts | 306° |
| 2026-05-06 23:26 | 57.43296 | 90.19080 | 33225 ft | 439 kts | 306° |
| 2026-05-06 23:26 | 57.45027 | 90.14395 | 33478 ft | 440 kts | 306° |
| 2026-05-06 23:26 | 57.46764 | 90.09690 | 33723 ft | 441 kts | 306° |
| 2026-05-06 23:26 | 57.48490 | 90.05005 | 33853 ft | 442 kts | 306° |
| 2026-05-06 23:27 | 57.50226 | 90.00284 | 33859 ft | 442 kts | 306° |
| 2026-05-06 23:27 | 57.53701 | 89.90807 | 33866 ft | 443 kts | 306° |
| 2026-05-06 23:28 | 57.57157 | 89.81355 | 33866 ft | 443 kts | 306° |
| 2026-05-06 23:28 | 57.60606 | 89.71874 | 33867 ft | 443 kts | 306° |
| 2026-05-06 23:29 | 57.64048 | 89.62375 | 33868 ft | 443 kts | 306° |
| 2026-05-06 23:29 | 57.67492 | 89.52830 | 33867 ft | 443 kts | 306° |
| 2026-05-06 23:30 | 57.70904 | 89.43333 | 33867 ft | 443 kts | 306° |
| 2026-05-06 23:30 | 57.74350 | 89.33796 | 33867 ft | 442 kts | 306° |
| 2026-05-06 23:31 | 57.77817 | 89.24219 | 33867 ft | 442 kts | 306° |
| 2026-05-06 23:31 | 57.81244 | 89.14710 | 33867 ft | 442 kts | 306° |
| 2026-05-06 23:32 | 57.84677 | 89.05149 | 33867 ft | 442 kts | 306° |
| 2026-05-06 23:32 | 57.88117 | 88.95541 | 33871 ft | 443 kts | 306° |
| 2026-05-06 23:33 | 57.91540 | 88.85942 | 33887 ft | 443 kts | 305° |
| 2026-05-06 23:33 | 57.94964 | 88.76296 | 33914 ft | 445 kts | 304° |
| 2026-05-06 23:34 | 57.98394 | 88.66577 | 33935 ft | 445 kts | 304° |
| 2026-05-06 23:34 | 58.01786 | 88.56931 | 33943 ft | 445 kts | 305° |
| 2026-05-06 23:35 | 58.05206 | 88.47173 | 33944 ft | 445 kts | 304° |
| 2026-05-06 23:35 | 58.08614 | 88.37415 | 33947 ft | 445 kts | 305° |
| 2026-05-06 23:36 | 58.12016 | 88.27632 | 33947 ft | 445 kts | 304° |
| 2026-05-06 23:36 | 58.15390 | 88.17929 | 33948 ft | 445 kts | 304° |
| 2026-05-06 23:37 | 58.18786 | 88.08078 | 33947 ft | 445 kts | 304° |
| 2026-05-06 23:37 | 58.22146 | 87.98303 | 33947 ft | 445 kts | 304° |
| 2026-05-06 23:38 | 58.25525 | 87.88458 | 33948 ft | 445 kts | 304° |
| 2026-05-06 23:38 | 58.28894 | 87.78595 | 33949 ft | 445 kts | 304° |
| 2026-05-06 23:39 | 58.32229 | 87.68783 | 33947 ft | 445 kts | 304° |
| 2026-05-06 23:39 | 58.35597 | 87.58836 | 33948 ft | 445 kts | 304° |
| 2026-05-06 23:40 | 58.38916 | 87.48985 | 33948 ft | 445 kts | 304° |
| 2026-05-06 23:40 | 58.42240 | 87.39076 | 33947 ft | 445 kts | 304° |
| 2026-05-06 23:41 | 58.45582 | 87.29056 | 33948 ft | 445 kts | 303° |
| 2026-05-06 23:41 | 58.48893 | 87.19077 | 33947 ft | 445 kts | 303° |
| 2026-05-06 23:42 | 58.52187 | 87.09126 | 33949 ft | 445 kts | 303° |
| 2026-05-06 23:42 | 58.55490 | 86.99113 | 33947 ft | 446 kts | 303° |
| 2026-05-06 23:43 | 58.58796 | 86.89050 | 33948 ft | 446 kts | 303° |
| 2026-05-06 23:43 | 58.62105 | 86.78925 | 33948 ft | 446 kts | 303° |
| 2026-05-06 23:44 | 58.65248 | 86.68697 | 33948 ft | 447 kts | 300° |
| 2026-05-06 23:44 | 58.68173 | 86.58194 | 33948 ft | 447 kts | 299° |
| 2026-05-06 23:45 | 58.71079 | 86.47647 | 33946 ft | 447 kts | 299° |
| 2026-05-06 23:45 | 58.73980 | 86.37088 | 33947 ft | 447 kts | 299° |
| 2026-05-06 23:46 | 58.76880 | 86.26471 | 33959 ft | 447 kts | 298° |
| 2026-05-06 23:46 | 58.79776 | 86.15813 | 33969 ft | 447 kts | 298° |
| 2026-05-06 23:47 | 58.82654 | 86.05187 | 33975 ft | 447 kts | 298° |
| 2026-05-06 23:47 | 58.85516 | 85.94580 | 33975 ft | 447 kts | 298° |
| 2026-05-06 23:48 | 58.88376 | 85.83935 | 33976 ft | 447 kts | 298° |
| 2026-05-06 23:48 | 58.91226 | 85.73277 | 33977 ft | 446 kts | 298° |
| 2026-05-06 23:49 | 58.94070 | 85.62593 | 33977 ft | 446 kts | 298° |
| 2026-05-06 23:49 | 58.96904 | 85.51897 | 33976 ft | 446 kts | 298° |
| 2026-05-06 23:50 | 58.99719 | 85.41219 | 33976 ft | 446 kts | 298° |
| 2026-05-06 23:50 | 59.03934 | 85.25108 | 33977 ft | 446 kts | 297° |
| 2026-05-06 23:51 | 59.06724 | 85.14372 | 33977 ft | 445 kts | 296° |
| 2026-05-06 23:51 | 59.09504 | 85.03647 | 33977 ft | 446 kts | 296° |
| 2026-05-06 23:52 | 59.12314 | 84.92825 | 33977 ft | 447 kts | 296° |
| 2026-05-06 23:52 | 59.15102 | 84.82050 | 33977 ft | 448 kts | 296° |
| 2026-05-06 23:53 | 59.17883 | 84.71198 | 33977 ft | 448 kts | 296° |
| 2026-05-06 23:53 | 59.20647 | 84.60342 | 33977 ft | 447 kts | 296° |
| 2026-05-06 23:54 | 59.23409 | 84.49428 | 33977 ft | 448 kts | 296° |
| 2026-05-06 23:54 | 59.26150 | 84.38539 | 33977 ft | 448 kts | 296° |
| 2026-05-06 23:55 | 59.28869 | 84.27672 | 33977 ft | 447 kts | 295° |
| 2026-05-06 23:55 | 59.31601 | 84.16685 | 33977 ft | 447 kts | 295° |
| 2026-05-06 23:56 | 59.34304 | 84.05772 | 33977 ft | 448 kts | 295° |
| 2026-05-06 23:56 | 59.37006 | 83.94824 | 33977 ft | 447 kts | 295° |
| 2026-05-06 23:57 | 59.39720 | 83.83769 | 33977 ft | 447 kts | 295° |
| 2026-05-06 23:57 | 59.42393 | 83.72829 | 33977 ft | 447 kts | 295° |
| 2026-05-06 23:58 | 59.45072 | 83.61807 | 33977 ft | 447 kts | 295° |
| 2026-05-06 23:58 | 59.47743 | 83.50764 | 33977 ft | 448 kts | 295° |
| 2026-05-06 23:59 | 59.50405 | 83.39703 | 33977 ft | 447 kts | 295° |
| 2026-05-06 23:59 | 59.53054 | 83.28625 | 33977 ft | 447 kts | 294° |
| 2026-05-07 00:00 | 59.55699 | 83.17496 | 33977 ft | 447 kts | 294° |
| 2026-05-07 00:00 | 59.57880 | 83.08286 | 33977 ft | 448 kts | 294° |
| 2026-05-07 00:01 | 59.60955 | 82.95256 | 33977 ft | 447 kts | 294° |
| 2026-05-07 00:01 | 59.63576 | 82.84105 | 33976 ft | 448 kts | 293° |
| 2026-05-07 00:02 | 59.66177 | 82.72955 | 33976 ft | 450 kts | 293° |
| 2026-05-07 00:02 | 59.68784 | 82.61703 | 33977 ft | 450 kts | 293° |
| 2026-05-07 00:03 | 59.71390 | 82.50405 | 33977 ft | 450 kts | 293° |
| 2026-05-07 00:03 | 59.73998 | 82.39047 | 33976 ft | 450 kts | 293° |
| 2026-05-07 00:04 | 59.76562 | 82.27812 | 33977 ft | 450 kts | 292° |
| 2026-05-07 00:04 | 59.79133 | 82.16473 | 33977 ft | 450 kts | 292° |
| 2026-05-07 00:05 | 59.81708 | 82.05071 | 33977 ft | 450 kts | 292° |
| 2026-05-07 00:05 | 59.84257 | 81.93730 | 33977 ft | 450 kts | 292° |
| 2026-05-07 00:06 | 59.86805 | 81.82338 | 33978 ft | 450 kts | 292° |
| 2026-05-07 00:06 | 59.89336 | 81.70959 | 33983 ft | 450 kts | 292° |
| 2026-05-07 00:07 | 59.91864 | 81.59528 | 33999 ft | 450 kts | 292° |
| 2026-05-07 00:07 | 59.94374 | 81.48122 | 34003 ft | 450 kts | 292° |
| 2026-05-07 00:08 | 59.96871 | 81.36710 | 33950 ft | 450 kts | 292° |
| 2026-05-07 00:08 | 59.99346 | 81.25324 | 33858 ft | 450 kts | 291° |
| 2026-05-07 00:09 | 60.01833 | 81.13813 | 33785 ft | 450 kts | 291° |
| 2026-05-07 00:09 | 60.04303 | 81.02345 | 33750 ft | 451 kts | 291° |
| 2026-05-07 00:10 | 60.06771 | 80.90826 | 33736 ft | 452 kts | 290° |
| 2026-05-07 00:10 | 60.09232 | 80.79264 | 33732 ft | 452 kts | 290° |
| 2026-05-07 00:11 | 60.11689 | 80.67720 | 33730 ft | 453 kts | 291° |
| 2026-05-07 00:11 | 60.14151 | 80.56123 | 33731 ft | 453 kts | 290° |
| 2026-05-07 00:12 | 60.16592 | 80.44463 | 33731 ft | 452 kts | 290° |
| 2026-05-07 00:12 | 60.19001 | 80.32906 | 33732 ft | 452 kts | 290° |
| 2026-05-07 00:13 | 60.21431 | 80.21220 | 33731 ft | 452 kts | 290° |
| 2026-05-07 00:13 | 60.23840 | 80.09557 | 33731 ft | 452 kts | 290° |
| 2026-05-07 00:14 | 60.26230 | 79.97913 | 33731 ft | 452 kts | 290° |
| 2026-05-07 00:14 | 60.28607 | 79.86262 | 33731 ft | 452 kts | 290° |
| 2026-05-07 00:15 | 60.30993 | 79.74503 | 33731 ft | 452 kts | 290° |
| 2026-05-07 00:15 | 60.33356 | 79.62788 | 33730 ft | 452 kts | 290° |
| 2026-05-07 00:16 | 60.35698 | 79.51108 | 33731 ft | 453 kts | 290° |
| 2026-05-07 00:16 | 60.38047 | 79.39326 | 33731 ft | 453 kts | 290° |
| 2026-05-07 00:17 | 60.40381 | 79.27536 | 33731 ft | 452 kts | 289° |
| 2026-05-07 00:17 | 60.42707 | 79.15708 | 33730 ft | 452 kts | 289° |
| 2026-05-07 00:18 | 60.45015 | 79.03928 | 33730 ft | 454 kts | 288° |
| 2026-05-07 00:18 | 60.47348 | 78.91949 | 33730 ft | 455 kts | 288° |
| 2026-05-07 00:19 | 60.49645 | 78.80061 | 33730 ft | 456 kts | 288° |
| 2026-05-07 00:19 | 60.51936 | 78.68147 | 33731 ft | 456 kts | 288° |
| 2026-05-07 00:20 | 60.54227 | 78.56162 | 33731 ft | 456 kts | 288° |
| 2026-05-07 00:20 | 60.56504 | 78.44177 | 33731 ft | 456 kts | 288° |
| 2026-05-07 00:21 | 60.58783 | 78.32114 | 33731 ft | 456 kts | 287° |
| 2026-05-07 00:21 | 60.61032 | 78.20104 | 33731 ft | 455 kts | 287° |
| 2026-05-07 00:22 | 60.63263 | 78.08128 | 33731 ft | 455 kts | 287° |
| 2026-05-07 00:22 | 60.65497 | 77.96078 | 33731 ft | 455 kts | 287° |
| 2026-05-07 00:23 | 60.67723 | 77.83995 | 33730 ft | 455 kts | 287° |
| 2026-05-07 00:23 | 60.69925 | 77.71954 | 33730 ft | 455 kts | 287° |
| 2026-05-07 00:24 | 60.72183 | 77.59898 | 33731 ft | 456 kts | 289° |
| 2026-05-07 00:24 | 60.74590 | 77.47933 | 33730 ft | 456 kts | 289° |
| 2026-05-07 00:25 | 60.76969 | 77.36018 | 33730 ft | 456 kts | 289° |
| 2026-05-07 00:25 | 60.79333 | 77.24015 | 33731 ft | 455 kts | 288° |
| 2026-05-07 00:26 | 60.81692 | 77.11942 | 33731 ft | 455 kts | 288° |
| 2026-05-07 00:26 | 60.84029 | 76.99943 | 33731 ft | 455 kts | 288° |
| 2026-05-07 00:27 | 60.86396 | 76.87890 | 33730 ft | 457 kts | 288° |
| 2026-05-07 00:27 | 60.88759 | 76.75784 | 33730 ft | 459 kts | 288° |
| 2026-05-07 00:28 | 60.91098 | 76.63680 | 33730 ft | 459 kts | 288° |
| 2026-05-07 00:28 | 60.93454 | 76.51490 | 33730 ft | 460 kts | 289° |
| 2026-05-07 00:29 | 60.96202 | 76.39645 | 33731 ft | 463 kts | 294° |
| 2026-05-07 00:30 | 61.02336 | 76.16383 | 33731 ft | 463 kts | 294° |
| 2026-05-07 00:30 | 61.05391 | 76.04720 | 33731 ft | 462 kts | 294° |
| 2026-05-07 00:31 | 61.08427 | 75.93053 | 33730 ft | 463 kts | 294° |
| 2026-05-07 00:31 | 61.11464 | 75.81355 | 33730 ft | 464 kts | 294° |
| 2026-05-07 00:32 | 61.14513 | 75.69598 | 33730 ft | 463 kts | 294° |
| 2026-05-07 00:32 | 61.17544 | 75.57783 | 33731 ft | 463 kts | 294° |
| 2026-05-07 00:33 | 61.20527 | 75.46077 | 33731 ft | 463 kts | 294° |
| 2026-05-07 00:33 | 61.23527 | 75.34220 | 33732 ft | 463 kts | 293° |
| 2026-05-07 00:34 | 61.26499 | 75.22375 | 33731 ft | 463 kts | 293° |
| 2026-05-07 00:34 | 61.29453 | 75.10544 | 33731 ft | 463 kts | 293° |
| 2026-05-07 00:35 | 61.32358 | 74.98682 | 33729 ft | 461 kts | 292° |
| 2026-05-07 00:35 | 61.35254 | 74.86759 | 33720 ft | 460 kts | 292° |
| 2026-05-07 00:36 | 61.38115 | 74.74914 | 33711 ft | 459 kts | 292° |
| 2026-05-07 00:36 | 61.40962 | 74.63064 | 33706 ft | 459 kts | 292° |
| 2026-05-07 00:37 | 61.43812 | 74.51141 | 33705 ft | 459 kts | 292° |
| 2026-05-07 00:37 | 61.46482 | 74.39900 | 33704 ft | 459 kts | 292° |
| 2026-05-07 00:38 | 61.49285 | 74.27871 | 33704 ft | 457 kts | 290° |
| 2026-05-07 00:38 | 61.51569 | 74.15632 | 33705 ft | 454 kts | 285° |
| 2026-05-07 00:39 | 61.53611 | 74.03134 | 33704 ft | 454 kts | 284° |
| 2026-05-07 00:39 | 61.55633 | 73.90609 | 33704 ft | 454 kts | 284° |
| 2026-05-07 00:40 | 61.57652 | 73.78071 | 33704 ft | 454 kts | 284° |
| 2026-05-07 00:40 | 61.59665 | 73.65499 | 33704 ft | 454 kts | 284° |
| 2026-05-07 00:41 | 61.61658 | 73.52964 | 33704 ft | 454 kts | 284° |
| 2026-05-07 00:41 | 61.63638 | 73.40435 | 33704 ft | 454 kts | 284° |
| 2026-05-07 00:42 | 61.65618 | 73.27800 | 33704 ft | 454 kts | 283° |
| 2026-05-07 00:42 | 61.67575 | 73.15218 | 33704 ft | 454 kts | 283° |
| 2026-05-07 00:43 | 61.69522 | 73.02640 | 33705 ft | 453 kts | 283° |
| 2026-05-07 00:43 | 61.71455 | 72.90054 | 33704 ft | 452 kts | 283° |
| 2026-05-07 00:44 | 61.73363 | 72.77512 | 33704 ft | 451 kts | 283° |
| 2026-05-07 00:44 | 61.75267 | 72.64925 | 33704 ft | 451 kts | 283° |
| 2026-05-07 00:45 | 61.77169 | 72.52247 | 33704 ft | 451 kts | 283° |
| 2026-05-07 00:45 | 61.79041 | 72.39703 | 33704 ft | 451 kts | 283° |
| 2026-05-07 00:46 | 61.80919 | 72.27080 | 33698 ft | 452 kts | 282° |
| 2026-05-07 00:46 | 61.82798 | 72.14349 | 33686 ft | 452 kts | 282° |
| 2026-05-07 00:47 | 61.84654 | 72.01685 | 33680 ft | 452 kts | 282° |
| 2026-05-07 00:47 | 61.86500 | 71.88998 | 33678 ft | 452 kts | 282° |
| 2026-05-07 00:48 | 61.88326 | 71.76356 | 33677 ft | 452 kts | 282° |
| 2026-05-07 00:48 | 61.90158 | 71.63583 | 33677 ft | 452 kts | 282° |
| 2026-05-07 00:49 | 61.91969 | 71.50854 | 33677 ft | 452 kts | 282° |
| 2026-05-07 00:49 | 61.93761 | 71.38141 | 33676 ft | 452 kts | 282° |
| 2026-05-07 00:50 | 61.95569 | 71.25318 | 33678 ft | 451 kts | 281° |
| 2026-05-07 00:50 | 61.97355 | 71.12579 | 33666 ft | 451 kts | 281° |
| 2026-05-07 00:51 | 61.99128 | 70.99812 | 33636 ft | 451 kts | 281° |
| 2026-05-07 00:51 | 62.00685 | 70.86913 | 33609 ft | 452 kts | 278° |
| 2026-05-07 00:52 | 62.02155 | 70.73897 | 33598 ft | 455 kts | 278° |
| 2026-05-07 00:52 | 62.03620 | 70.60811 | 33594 ft | 455 kts | 278° |
| 2026-05-07 00:53 | 62.05073 | 70.47765 | 33593 ft | 455 kts | 278° |
| 2026-05-07 00:53 | 62.06519 | 70.34668 | 33593 ft | 455 kts | 277° |
| 2026-05-07 00:54 | 62.07956 | 70.21528 | 33594 ft | 455 kts | 277° |
| 2026-05-07 00:54 | 62.09377 | 70.08404 | 33594 ft | 455 kts | 277° |
| 2026-05-07 00:55 | 62.10797 | 69.95274 | 33592 ft | 455 kts | 277° |
| 2026-05-07 00:55 | 62.12215 | 69.82199 | 33594 ft | 455 kts | 277° |
| 2026-05-07 00:56 | 62.13616 | 69.69012 | 33594 ft | 455 kts | 277° |
| 2026-05-07 00:56 | 62.14986 | 69.55897 | 33594 ft | 454 kts | 277° |
| 2026-05-07 00:57 | 62.16347 | 69.42717 | 33594 ft | 454 kts | 277° |
| 2026-05-07 00:57 | 62.17697 | 69.29498 | 33594 ft | 454 kts | 276° |
| 2026-05-07 00:58 | 62.19019 | 69.16400 | 33594 ft | 454 kts | 276° |
| 2026-05-07 00:58 | 62.20338 | 69.03204 | 33593 ft | 454 kts | 276° |
| 2026-05-07 00:59 | 62.22300 | 68.83296 | 33593 ft | 457 kts | 277° |
| 2026-05-07 01:00 | 62.23599 | 68.69983 | 33594 ft | 457 kts | 277° |
| 2026-05-07 01:00 | 62.24877 | 68.56747 | 33594 ft | 457 kts | 277° |
| 2026-05-07 01:01 | 62.26152 | 68.43375 | 33594 ft | 456 kts | 277° |
| 2026-05-07 01:01 | 62.27408 | 68.30047 | 33594 ft | 457 kts | 276° |
| 2026-05-07 01:02 | 62.28653 | 68.16682 | 33593 ft | 457 kts | 276° |
| 2026-05-07 01:02 | 62.29881 | 68.03359 | 33594 ft | 457 kts | 276° |
| 2026-05-07 01:03 | 62.31102 | 67.89953 | 33593 ft | 457 kts | 276° |
| 2026-05-07 01:03 | 62.32299 | 67.76640 | 33593 ft | 457 kts | 276° |
| 2026-05-07 01:04 | 62.33497 | 67.63232 | 33594 ft | 457 kts | 276° |
| 2026-05-07 01:04 | 62.34682 | 67.49828 | 33594 ft | 457 kts | 276° |
| 2026-05-07 01:05 | 62.35846 | 67.36468 | 33594 ft | 457 kts | 276° |
| 2026-05-07 01:05 | 62.37003 | 67.23004 | 33594 ft | 456 kts | 275° |
| 2026-05-07 01:06 | 62.38135 | 67.09641 | 33594 ft | 456 kts | 276° |
| 2026-05-07 01:06 | 62.39256 | 66.96230 | 33594 ft | 456 kts | 276° |
| 2026-05-07 01:07 | 62.40374 | 66.82784 | 33594 ft | 455 kts | 276° |
| 2026-05-07 01:07 | 62.41475 | 66.69386 | 33594 ft | 455 kts | 276° |
| 2026-05-07 01:08 | 62.42564 | 66.55924 | 33594 ft | 455 kts | 276° |
| 2026-05-07 01:08 | 62.43638 | 66.42475 | 33594 ft | 455 kts | 276° |
| 2026-05-07 01:09 | 62.44694 | 66.29067 | 33594 ft | 455 kts | 275° |
| 2026-05-07 01:09 | 62.45737 | 66.15609 | 33594 ft | 455 kts | 275° |
| 2026-05-07 01:10 | 62.46630 | 66.02168 | 33593 ft | 453 kts | 271° |
| 2026-05-07 01:10 | 62.46979 | 65.88578 | 33593 ft | 451 kts | 268° |
| 2026-05-07 01:11 | 62.47208 | 65.75084 | 33594 ft | 451 kts | 268° |
| 2026-05-07 01:11 | 62.47427 | 65.61518 | 33594 ft | 451 kts | 268° |
| 2026-05-07 01:12 | 62.47636 | 65.48019 | 33594 ft | 452 kts | 269° |
| 2026-05-07 01:12 | 62.47834 | 65.34527 | 33594 ft | 451 kts | 268° |
| 2026-05-07 01:13 | 62.48020 | 65.20958 | 33594 ft | 451 kts | 268° |
| 2026-05-07 01:13 | 62.48190 | 65.07481 | 33590 ft | 451 kts | 268° |
| 2026-05-07 01:14 | 62.48344 | 64.93923 | 33584 ft | 451 kts | 268° |
| 2026-05-07 01:14 | 62.48553 | 64.80404 | 33580 ft | 452 kts | 270° |
| 2026-05-07 01:15 | 62.48793 | 64.66843 | 33578 ft | 453 kts | 270° |
| 2026-05-07 01:15 | 62.49017 | 64.53252 | 33573 ft | 452 kts | 270° |
| 2026-05-07 01:16 | 62.49221 | 64.39656 | 33569 ft | 452 kts | 270° |
| 2026-05-07 01:16 | 62.49410 | 64.26050 | 33567 ft | 452 kts | 269° |
| 2026-05-07 01:17 | 62.49583 | 64.12491 | 33567 ft | 452 kts | 269° |
| 2026-05-07 01:17 | 62.49744 | 63.98884 | 33567 ft | 452 kts | 269° |
| 2026-05-07 01:18 | 62.49892 | 63.85263 | 33567 ft | 452 kts | 269° |
| 2026-05-07 01:18 | 62.50026 | 63.71711 | 33567 ft | 452 kts | 269° |
| 2026-05-07 01:19 | 62.50147 | 63.58153 | 33567 ft | 452 kts | 269° |
| 2026-05-07 01:19 | 62.50254 | 63.44587 | 33567 ft | 452 kts | 269° |
| 2026-05-07 01:20 | 62.50349 | 63.30943 | 33567 ft | 452 kts | 268° |
| 2026-05-07 01:20 | 62.50430 | 63.17401 | 33567 ft | 452 kts | 268° |
| 2026-05-07 01:21 | 62.50497 | 63.03719 | 33566 ft | 453 kts | 268° |
| 2026-05-07 01:21 | 62.50548 | 62.90173 | 33566 ft | 455 kts | 269° |
| 2026-05-07 01:22 | 62.50590 | 62.76408 | 33567 ft | 456 kts | 269° |
| 2026-05-07 01:22 | 62.50623 | 62.62645 | 33567 ft | 456 kts | 269° |
| 2026-05-07 01:23 | 62.50639 | 62.48963 | 33576 ft | 457 kts | 269° |
| 2026-05-07 01:23 | 62.50641 | 62.35257 | 33609 ft | 457 kts | 269° |
| 2026-05-07 01:24 | 62.50630 | 62.21577 | 33670 ft | 457 kts | 268° |
| 2026-05-07 01:24 | 62.50605 | 62.07828 | 33752 ft | 457 kts | 268° |
| 2026-05-07 01:25 | 62.50567 | 61.94054 | 33806 ft | 457 kts | 268° |
| 2026-05-07 01:25 | 62.50515 | 61.80347 | 33828 ft | 457 kts | 268° |
| 2026-05-07 01:26 | 62.50449 | 61.66714 | 33836 ft | 456 kts | 268° |
| 2026-05-07 01:26 | 62.50370 | 61.52981 | 33838 ft | 456 kts | 268° |
| 2026-05-07 01:27 | 62.50279 | 61.39340 | 33839 ft | 456 kts | 268° |
| 2026-05-07 01:27 | 62.50173 | 61.25612 | 33839 ft | 456 kts | 267° |
| 2026-05-07 01:28 | 62.50053 | 61.11945 | 33838 ft | 457 kts | 268° |
| 2026-05-07 01:28 | 62.49916 | 60.98129 | 33839 ft | 458 kts | 268° |
| 2026-05-07 01:29 | 62.49770 | 60.84386 | 33839 ft | 458 kts | 268° |
| 2026-05-07 01:29 | 62.49613 | 60.70621 | 33839 ft | 458 kts | 268° |
| 2026-05-07 01:30 | 62.49441 | 60.56951 | 33839 ft | 458 kts | 268° |
| 2026-05-07 01:30 | 62.49253 | 60.43156 | 33839 ft | 458 kts | 268° |
| 2026-05-07 01:31 | 62.49054 | 60.29445 | 33839 ft | 458 kts | 267° |
| 2026-05-07 01:31 | 62.48840 | 60.15718 | 33839 ft | 458 kts | 267° |
| 2026-05-07 01:32 | 62.48611 | 60.01916 | 33839 ft | 458 kts | 267° |
| 2026-05-07 01:32 | 62.48370 | 59.88190 | 33839 ft | 458 kts | 267° |
| 2026-05-07 01:33 | 62.48115 | 59.74489 | 33839 ft | 458 kts | 267° |
| 2026-05-07 01:33 | 62.47846 | 59.60734 | 33838 ft | 458 kts | 268° |
| 2026-05-07 01:34 | 62.47790 | 59.47018 | 33839 ft | 459 kts | 270° |
| 2026-05-07 01:34 | 62.47784 | 59.33173 | 33839 ft | 459 kts | 269° |
| 2026-05-07 01:35 | 62.47762 | 59.19476 | 33839 ft | 459 kts | 269° |
| 2026-05-07 01:35 | 62.47723 | 59.05689 | 33839 ft | 459 kts | 269° |
| 2026-05-07 01:36 | 62.47668 | 58.91976 | 33838 ft | 460 kts | 269° |
| 2026-05-07 01:36 | 62.47595 | 58.78101 | 33838 ft | 463 kts | 270° |
| 2026-05-07 01:37 | 62.47514 | 58.64170 | 33839 ft | 463 kts | 270° |
| 2026-05-07 01:37 | 62.47421 | 58.50340 | 33839 ft | 463 kts | 270° |
| 2026-05-07 01:38 | 62.47313 | 58.36453 | 33839 ft | 463 kts | 270° |
| 2026-05-07 01:38 | 62.47189 | 58.22500 | 33839 ft | 463 kts | 269° |
| 2026-05-07 01:39 | 62.47052 | 58.08637 | 33839 ft | 463 kts | 269° |
| 2026-05-07 01:39 | 62.46901 | 57.94758 | 33839 ft | 463 kts | 269° |
| 2026-05-07 01:40 | 62.46735 | 57.80835 | 33839 ft | 463 kts | 269° |
| 2026-05-07 01:40 | 62.46557 | 57.67008 | 33839 ft | 463 kts | 269° |
| 2026-05-07 01:41 | 62.46364 | 57.53103 | 33839 ft | 463 kts | 269° |
| 2026-05-07 01:41 | 62.46158 | 57.39257 | 33839 ft | 463 kts | 269° |
| 2026-05-07 01:42 | 62.45937 | 57.25317 | 33839 ft | 463 kts | 268° |
| 2026-05-07 01:42 | 62.45703 | 57.11441 | 33839 ft | 463 kts | 268° |
| 2026-05-07 01:43 | 62.45451 | 56.97553 | 33837 ft | 466 kts | 269° |
| 2026-05-07 01:43 | 62.45182 | 56.83596 | 33838 ft | 468 kts | 269° |
| 2026-05-07 01:44 | 62.44909 | 56.69594 | 33839 ft | 469 kts | 269° |
| 2026-05-07 01:44 | 62.44619 | 56.55566 | 33839 ft | 469 kts | 269° |
| 2026-05-07 01:45 | 62.44312 | 56.41494 | 33839 ft | 469 kts | 269° |
| 2026-05-07 01:45 | 62.43993 | 56.27515 | 33839 ft | 469 kts | 268° |
| 2026-05-07 01:46 | 62.43657 | 56.13457 | 33839 ft | 469 kts | 268° |
| 2026-05-07 01:46 | 62.43308 | 55.99424 | 33842 ft | 469 kts | 268° |
| 2026-05-07 01:47 | 62.42945 | 55.85435 | 33856 ft | 469 kts | 268° |
| 2026-05-07 01:47 | 62.42565 | 55.71358 | 33864 ft | 469 kts | 268° |
| 2026-05-07 01:48 | 62.42174 | 55.57378 | 33867 ft | 469 kts | 268° |
| 2026-05-07 01:48 | 62.41768 | 55.43379 | 33867 ft | 469 kts | 268° |
| 2026-05-07 01:49 | 62.41347 | 55.29369 | 33873 ft | 469 kts | 268° |
| 2026-05-07 01:49 | 62.40909 | 55.15319 | 33893 ft | 468 kts | 268° |
| 2026-05-07 01:50 | 62.40480 | 55.01364 | 33911 ft | 467 kts | 268° |
| 2026-05-07 01:50 | 62.40051 | 54.87479 | 33919 ft | 466 kts | 269° |
| 2026-05-07 01:51 | 62.39608 | 54.73537 | 33921 ft | 467 kts | 268° |
| 2026-05-07 01:51 | 62.39147 | 54.59587 | 33922 ft | 466 kts | 268° |
| 2026-05-07 01:52 | 62.38672 | 54.45704 | 33922 ft | 466 kts | 268° |
| 2026-05-07 01:52 | 62.38183 | 54.31831 | 33922 ft | 466 kts | 268° |
| 2026-05-07 01:53 | 62.37679 | 54.17905 | 33922 ft | 467 kts | 268° |
| 2026-05-07 01:53 | 62.37158 | 54.03983 | 33922 ft | 467 kts | 268° |
| 2026-05-07 01:54 | 62.36628 | 53.90157 | 33922 ft | 467 kts | 268° |
| 2026-05-07 01:54 | 62.36098 | 53.76245 | 33922 ft | 466 kts | 268° |
| 2026-05-07 01:55 | 62.35552 | 53.62362 | 33922 ft | 467 kts | 268° |
| 2026-05-07 01:55 | 62.34988 | 53.48481 | 33922 ft | 467 kts | 268° |
| 2026-05-07 01:56 | 62.34423 | 53.34578 | 33923 ft | 466 kts | 267° |
| 2026-05-07 01:56 | 62.33849 | 53.20675 | 33922 ft | 467 kts | 267° |
| 2026-05-07 01:57 | 62.33261 | 53.06850 | 33922 ft | 467 kts | 267° |
| 2026-05-07 01:57 | 62.32659 | 52.93023 | 33922 ft | 466 kts | 266° |
| 2026-05-07 01:58 | 62.32042 | 52.79176 | 33923 ft | 465 kts | 266° |
| 2026-05-07 01:58 | 62.31410 | 52.65349 | 33922 ft | 465 kts | 266° |
| 2026-05-07 01:59 | 62.30761 | 52.51503 | 33923 ft | 465 kts | 266° |
| 2026-05-07 01:59 | 62.30103 | 52.37716 | 33923 ft | 465 kts | 266° |
| 2026-05-07 02:00 | 62.29433 | 52.23965 | 33922 ft | 465 kts | 265° |
| 2026-05-07 02:00 | 62.28747 | 52.10149 | 33922 ft | 465 kts | 265° |
| 2026-05-07 02:01 | 62.28047 | 51.96366 | 33922 ft | 465 kts | 265° |
| 2026-05-07 02:01 | 62.27333 | 51.82574 | 33925 ft | 466 kts | 265° |
| 2026-05-07 02:02 | 62.26603 | 51.68751 | 33988 ft | 466 kts | 265° |
| 2026-05-07 02:02 | 62.25865 | 51.55040 | 34030 ft | 466 kts | 265° |
| 2026-05-07 02:03 | 62.25109 | 51.41252 | 34043 ft | 465 kts | 265° |
| 2026-05-07 02:03 | 62.24343 | 51.27537 | 34040 ft | 465 kts | 265° |
| 2026-05-07 02:04 | 62.23560 | 51.13760 | 34035 ft | 465 kts | 265° |
| 2026-05-07 02:04 | 62.22765 | 51.00070 | 34034 ft | 465 kts | 265° |
| 2026-05-07 02:05 | 62.21955 | 50.86388 | 34034 ft | 464 kts | 265° |
| 2026-05-07 02:05 | 62.21138 | 50.72733 | 34034 ft | 464 kts | 265° |
| 2026-05-07 02:06 | 62.20303 | 50.59064 | 34034 ft | 464 kts | 265° |
| 2026-05-07 02:06 | 62.19465 | 50.45339 | 34034 ft | 463 kts | 265° |
| 2026-05-07 02:07 | 62.18632 | 50.31732 | 34033 ft | 464 kts | 265° |
| 2026-05-07 02:07 | 62.17344 | 50.11214 | 34033 ft | 464 kts | 265° |
| 2026-05-07 02:08 | 62.16467 | 49.97557 | 34034 ft | 464 kts | 265° |
| 2026-05-07 02:08 | 62.15579 | 49.83962 | 34034 ft | 464 kts | 265° |
| 2026-05-07 02:09 | 62.14678 | 49.70383 | 34034 ft | 464 kts | 265° |
| 2026-05-07 02:09 | 62.13758 | 49.56735 | 34034 ft | 464 kts | 265° |
| 2026-05-07 02:10 | 62.12827 | 49.43131 | 34034 ft | 464 kts | 264° |
| 2026-05-07 02:10 | 62.11882 | 49.29554 | 34034 ft | 464 kts | 264° |
| 2026-05-07 02:11 | 62.10924 | 49.15982 | 34033 ft | 464 kts | 264° |
| 2026-05-07 02:11 | 62.09879 | 49.02377 | 34033 ft | 464 kts | 262° |
| 2026-05-07 02:12 | 62.08756 | 48.88934 | 34033 ft | 463 kts | 262° |
| 2026-05-07 02:12 | 62.07610 | 48.75394 | 34034 ft | 463 kts | 262° |
| 2026-05-07 02:13 | 62.06466 | 48.61982 | 34033 ft | 463 kts | 262° |
| 2026-05-07 02:13 | 62.05303 | 48.48462 | 34034 ft | 463 kts | 262° |
| 2026-05-07 02:14 | 62.04131 | 48.35011 | 34033 ft | 463 kts | 262° |
| 2026-05-07 02:14 | 62.02951 | 48.21586 | 34033 ft | 463 kts | 261° |
| 2026-05-07 02:15 | 62.01750 | 48.08112 | 34033 ft | 463 kts | 261° |
| 2026-05-07 02:15 | 62.00536 | 47.94644 | 34033 ft | 463 kts | 261° |
| 2026-05-07 02:16 | 61.99318 | 47.81294 | 34033 ft | 463 kts | 261° |
| 2026-05-07 02:16 | 61.98081 | 47.67894 | 34016 ft | 463 kts | 261° |
| 2026-05-07 02:17 | 61.96829 | 47.54482 | 33967 ft | 464 kts | 261° |
| 2026-05-07 02:17 | 61.95558 | 47.41051 | 33939 ft | 464 kts | 261° |
| 2026-05-07 02:18 | 61.94271 | 47.27608 | 33927 ft | 464 kts | 260° |
| 2026-05-07 02:18 | 61.92985 | 47.14274 | 33923 ft | 464 kts | 260° |
| 2026-05-07 02:19 | 61.91683 | 47.00829 | 33923 ft | 464 kts | 260° |
| 2026-05-07 02:19 | 61.90365 | 46.87472 | 33926 ft | 462 kts | 260° |
| 2026-05-07 02:20 | 61.88967 | 46.74298 | 33925 ft | 458 kts | 259° |
| 2026-05-07 02:20 | 61.87534 | 46.61158 | 33924 ft | 458 kts | 259° |
| 2026-05-07 02:21 | 61.86108 | 46.48029 | 33923 ft | 458 kts | 259° |
| 2026-05-07 02:21 | 61.84688 | 46.35009 | 33922 ft | 458 kts | 259° |
| 2026-05-07 02:22 | 61.83244 | 46.21852 | 33923 ft | 458 kts | 258° |
| 2026-05-07 02:22 | 61.81789 | 46.08749 | 33924 ft | 458 kts | 259° |
| 2026-05-07 02:23 | 61.80326 | 45.95673 | 33924 ft | 458 kts | 258° |
| 2026-05-07 02:23 | 61.78850 | 45.82608 | 33923 ft | 458 kts | 258° |
| 2026-05-07 02:24 | 61.77372 | 45.69653 | 33922 ft | 458 kts | 258° |
| 2026-05-07 02:24 | 61.75866 | 45.56578 | 33922 ft | 458 kts | 259° |
| 2026-05-07 02:25 | 61.74345 | 45.43499 | 33937 ft | 458 kts | 258° |
| 2026-05-07 02:25 | 61.72828 | 45.30544 | 33970 ft | 457 kts | 258° |
| 2026-05-07 02:26 | 61.71288 | 45.17524 | 33998 ft | 457 kts | 258° |
| 2026-05-07 02:26 | 61.69977 | 45.04377 | 34014 ft | 455 kts | 263° |
| 2026-05-07 02:27 | 61.69262 | 44.91260 | 34026 ft | 453 kts | 267° |
| 2026-05-07 02:27 | 61.68647 | 44.78071 | 34031 ft | 450 kts | 267° |
| 2026-05-07 02:28 | 61.68023 | 44.64920 | 34026 ft | 450 kts | 268° |
| 2026-05-07 02:28 | 61.67389 | 44.51875 | 34032 ft | 450 kts | 268° |
| 2026-05-07 02:29 | 61.66737 | 44.38787 | 34028 ft | 450 kts | 267° |
| 2026-05-07 02:29 | 61.66069 | 44.25655 | 34030 ft | 451 kts | 266° |
| 2026-05-07 02:30 | 61.65390 | 44.12575 | 34028 ft | 451 kts | 266° |
| 2026-05-07 02:30 | 61.64695 | 43.99440 | 34030 ft | 451 kts | 266° |
| 2026-05-07 02:31 | 61.63988 | 43.86328 | 34031 ft | 451 kts | 266° |
| 2026-05-07 02:31 | 61.63271 | 43.73226 | 34027 ft | 450 kts | 266° |
| 2026-05-07 02:32 | 61.62540 | 43.60148 | 34028 ft | 450 kts | 266° |
| 2026-05-07 02:32 | 61.61794 | 43.47023 | 34031 ft | 451 kts | 266° |
| 2026-05-07 02:33 | 61.61037 | 43.33940 | 34025 ft | 451 kts | 265° |
| 2026-05-07 02:33 | 61.60272 | 43.20860 | 34026 ft | 451 kts | 265° |
| 2026-05-07 02:34 | 61.59489 | 43.07783 | 34031 ft | 450 kts | 266° |
| 2026-05-07 02:34 | 61.58697 | 42.94821 | 34031 ft | 448 kts | 266° |
| 2026-05-07 02:35 | 61.57899 | 42.81847 | 34029 ft | 447 kts | 266° |
| 2026-05-07 02:35 | 61.57090 | 42.68910 | 34029 ft | 447 kts | 266° |
| 2026-05-07 02:36 | 61.56271 | 42.56046 | 34028 ft | 447 kts | 266° |
| 2026-05-07 02:36 | 61.55438 | 42.43132 | 34031 ft | 445 kts | 266° |
| 2026-05-07 02:37 | 61.54594 | 42.30283 | 34030 ft | 447 kts | 265° |
| 2026-05-07 02:37 | 61.53758 | 42.17357 | 34029 ft | 447 kts | 265° |
| 2026-05-07 02:38 | 61.52911 | 42.04432 | 34031 ft | 447 kts | 266° |
| 2026-05-07 02:38 | 61.52052 | 41.91510 | 34027 ft | 447 kts | 265° |
| 2026-05-07 02:39 | 61.51183 | 41.78690 | 34030 ft | 447 kts | 265° |
| 2026-05-07 02:39 | 61.50294 | 41.65756 | 34026 ft | 447 kts | 265° |
| 2026-05-07 02:40 | 61.49397 | 41.52860 | 34029 ft | 447 kts | 265° |
| 2026-05-07 02:40 | 61.48487 | 41.39948 | 34027 ft | 447 kts | 265° |
| 2026-05-07 02:41 | 61.47570 | 41.27143 | 34032 ft | 448 kts | 264° |
| 2026-05-07 02:41 | 61.46638 | 41.14301 | 34032 ft | 447 kts | 265° |
| 2026-05-07 02:42 | 61.45689 | 41.01372 | 34027 ft | 446 kts | 264° |
| 2026-05-07 02:42 | 61.44738 | 40.88609 | 34032 ft | 444 kts | 264° |
| 2026-05-07 02:43 | 61.43777 | 40.75863 | 34032 ft | 441 kts | 264° |
| 2026-05-07 02:43 | 61.42811 | 40.63276 | 34028 ft | 441 kts | 264° |
| 2026-05-07 02:44 | 61.41832 | 40.50645 | 34029 ft | 441 kts | 264° |
| 2026-05-07 02:44 | 61.40841 | 40.38019 | 34030 ft | 441 kts | 264° |
| 2026-05-07 02:45 | 61.39835 | 40.25365 | 34030 ft | 442 kts | 263° |
| 2026-05-07 02:45 | 61.38820 | 40.12707 | 34031 ft | 442 kts | 263° |
| 2026-05-07 02:46 | 61.37797 | 40.00145 | 34030 ft | 441 kts | 263° |
| 2026-05-07 02:46 | 61.36754 | 39.87475 | 34029 ft | 441 kts | 263° |
| 2026-05-07 02:47 | 61.35709 | 39.74928 | 34029 ft | 442 kts | 263° |
| 2026-05-07 02:47 | 61.34640 | 39.62278 | 34031 ft | 442 kts | 263° |
| 2026-05-07 02:48 | 61.33560 | 39.49625 | 34031 ft | 442 kts | 263° |
| 2026-05-07 02:48 | 61.32471 | 39.37039 | 34031 ft | 442 kts | 263° |
| 2026-05-07 02:49 | 61.31374 | 39.24441 | 34029 ft | 443 kts | 262° |
| 2026-05-07 02:49 | 61.30256 | 39.11807 | 34030 ft | 442 kts | 262° |
| 2026-05-07 02:50 | 61.29141 | 38.99318 | 34032 ft | 439 kts | 262° |
| 2026-05-07 02:50 | 61.28038 | 38.86867 | 34034 ft | 435 kts | 261° |
| 2026-05-07 02:51 | 61.26932 | 38.74573 | 34030 ft | 434 kts | 261° |
| 2026-05-07 02:51 | 61.25812 | 38.62299 | 34027 ft | 434 kts | 261° |
| 2026-05-07 02:52 | 61.24598 | 38.49999 | 34027 ft | 435 kts | 258° |
| 2026-05-07 02:52 | 61.22829 | 38.38027 | 34022 ft | 437 kts | 252° |
| 2026-05-07 02:53 | 61.20444 | 38.26447 | 34022 ft | 438 kts | 246° |
| 2026-05-07 02:53 | 61.17854 | 38.15044 | 34031 ft | 438 kts | 246° |
| 2026-05-07 02:54 | 61.15247 | 38.03643 | 34046 ft | 438 kts | 247° |
| 2026-05-07 02:54 | 61.12643 | 37.92306 | 34053 ft | 438 kts | 246° |
| 2026-05-07 02:55 | 61.10027 | 37.80986 | 34055 ft | 438 kts | 246° |
| 2026-05-07 02:55 | 61.07402 | 37.69684 | 34056 ft | 437 kts | 246° |
| 2026-05-07 02:56 | 61.04756 | 37.58355 | 34058 ft | 438 kts | 246° |
| 2026-05-07 02:56 | 61.02116 | 37.47102 | 34058 ft | 437 kts | 246° |
| 2026-05-07 02:57 | 60.99464 | 37.35869 | 34058 ft | 437 kts | 246° |
| 2026-05-07 02:57 | 60.96807 | 37.24644 | 34057 ft | 438 kts | 246° |
| 2026-05-07 02:58 | 60.94140 | 37.13440 | 34057 ft | 437 kts | 246° |
| 2026-05-07 02:58 | 60.91470 | 37.02295 | 34058 ft | 433 kts | 245° |
| 2026-05-07 02:59 | 60.88804 | 36.91259 | 34059 ft | 429 kts | 245° |
| 2026-05-07 02:59 | 60.86136 | 36.80352 | 34058 ft | 428 kts | 245° |
| 2026-05-07 03:00 | 60.83487 | 36.69487 | 34057 ft | 429 kts | 245° |
| 2026-05-07 03:00 | 60.80844 | 36.58577 | 34057 ft | 428 kts | 245° |
| 2026-05-07 03:01 | 60.78198 | 36.47664 | 34058 ft | 429 kts | 245° |
| 2026-05-07 03:01 | 60.75555 | 36.36821 | 34057 ft | 429 kts | 245° |
| 2026-05-07 03:02 | 60.72877 | 36.25870 | 34049 ft | 429 kts | 245° |
| 2026-05-07 03:02 | 60.70221 | 36.15048 | 34039 ft | 429 kts | 245° |
| 2026-05-07 03:03 | 60.67541 | 36.04213 | 34035 ft | 429 kts | 245° |
| 2026-05-07 03:03 | 60.64834 | 35.93324 | 34032 ft | 429 kts | 245° |
| 2026-05-07 03:04 | 60.62136 | 35.82528 | 34033 ft | 429 kts | 245° |
| 2026-05-07 03:04 | 60.59440 | 35.71795 | 34031 ft | 429 kts | 245° |
| 2026-05-07 03:05 | 60.56715 | 35.60996 | 34032 ft | 429 kts | 245° |
| 2026-05-07 03:05 | 60.53986 | 35.50238 | 34031 ft | 429 kts | 245° |
| 2026-05-07 03:06 | 60.51850 | 35.41856 | 34033 ft | 429 kts | 245° |
| 2026-05-07 03:06 | 60.49342 | 35.32058 | 34032 ft | 429 kts | 244° |
| 2026-05-07 03:07 | 60.46680 | 35.21264 | 34033 ft | 428 kts | 247° |
| 2026-05-07 03:07 | 60.44516 | 35.10125 | 34032 ft | 427 kts | 252° |
| 2026-05-07 03:08 | 60.42900 | 34.98601 | 34034 ft | 426 kts | 257° |
| 2026-05-07 03:08 | 60.41437 | 34.86986 | 34033 ft | 427 kts | 256° |
| 2026-05-07 03:09 | 60.39959 | 34.75337 | 34033 ft | 427 kts | 256° |
| 2026-05-07 03:09 | 60.38478 | 34.63753 | 34033 ft | 427 kts | 256° |
| 2026-05-07 03:10 | 60.36980 | 34.52129 | 34033 ft | 427 kts | 256° |
| 2026-05-07 03:10 | 60.35484 | 34.40592 | 34033 ft | 427 kts | 256° |
| 2026-05-07 03:11 | 60.33970 | 34.29003 | 34034 ft | 427 kts | 256° |
| 2026-05-07 03:11 | 60.32453 | 34.17461 | 34033 ft | 428 kts | 256° |
| 2026-05-07 03:12 | 60.30915 | 34.05859 | 34033 ft | 427 kts | 256° |
| 2026-05-07 03:12 | 60.29371 | 33.94297 | 34033 ft | 427 kts | 256° |
| 2026-05-07 03:13 | 60.27826 | 33.82802 | 34033 ft | 427 kts | 256° |
| 2026-05-07 03:13 | 60.26265 | 33.71291 | 34033 ft | 427 kts | 256° |
| 2026-05-07 03:14 | 60.24688 | 33.59748 | 34033 ft | 428 kts | 256° |
| 2026-05-07 03:15 | 60.22314 | 33.42543 | 34034 ft | 427 kts | 256° |
| 2026-05-07 03:15 | 60.20714 | 33.31061 | 34034 ft | 427 kts | 255° |
| 2026-05-07 03:16 | 60.19097 | 33.19522 | 34033 ft | 427 kts | 255° |
| 2026-05-07 03:16 | 60.17487 | 33.08085 | 33888 ft | 429 kts | 255° |
| 2026-05-07 03:16 | 60.16677 | 33.02363 | 33102 ft | 432 kts | 255° |
| 2026-05-07 03:17 | 60.15849 | 32.96545 | 32311 ft | 433 kts | 255° |
| 2026-05-07 03:17 | 60.15017 | 32.90728 | 31520 ft | 434 kts | 255° |
| 2026-05-07 03:17 | 60.14190 | 32.84965 | 30736 ft | 434 kts | 255° |
| 2026-05-07 03:17 | 60.13352 | 32.79145 | 29954 ft | 434 kts | 255° |
| 2026-05-07 03:18 | 60.12521 | 32.73392 | 29187 ft | 433 kts | 255° |
| 2026-05-07 03:18 | 60.11683 | 32.67626 | 28402 ft | 432 kts | 255° |
| 2026-05-07 03:18 | 60.10846 | 32.61886 | 27605 ft | 431 kts | 255° |
| 2026-05-07 03:18 | 60.10003 | 32.56130 | 26788 ft | 431 kts | 255° |
| 2026-05-07 03:19 | 60.09161 | 32.50400 | 25998 ft | 429 kts | 255° |
| 2026-05-07 03:19 | 60.08338 | 32.44816 | 25511 ft | 420 kts | 255° |
| 2026-05-07 03:19 | 60.07520 | 32.39278 | 25006 ft | 413 kts | 255° |
| 2026-05-07 03:19 | 60.06779 | 32.33730 | 24483 ft | 406 kts | 258° |
| 2026-05-07 03:20 | 60.06253 | 32.28219 | 23970 ft | 400 kts | 262° |
| 2026-05-07 03:20 | 60.05938 | 32.22760 | 23459 ft | 395 kts | 266° |
| 2026-05-07 03:20 | 60.05787 | 32.17329 | 22967 ft | 389 kts | 268° |
| 2026-05-07 03:20 | 60.05669 | 32.11958 | 22479 ft | 384 kts | 268° |
| 2026-05-07 03:21 | 60.05554 | 32.06676 | 21983 ft | 380 kts | 268° |
| 2026-05-07 03:21 | 60.05438 | 32.01431 | 21484 ft | 377 kts | 268° |
| 2026-05-07 03:21 | 60.05318 | 31.96239 | 20981 ft | 373 kts | 268° |
| 2026-05-07 03:21 | 60.05199 | 31.91125 | 20485 ft | 371 kts | 268° |
| 2026-05-07 03:22 | 60.05076 | 31.85957 | 19979 ft | 368 kts | 268° |
| 2026-05-07 03:22 | 60.04952 | 31.80860 | 19480 ft | 365 kts | 268° |
| 2026-05-07 03:22 | 60.04828 | 31.75858 | 19002 ft | 363 kts | 268° |
| 2026-05-07 03:22 | 60.04702 | 31.70843 | 18515 ft | 360 kts | 268° |
| 2026-05-07 03:23 | 60.04575 | 31.65866 | 18020 ft | 358 kts | 268° |
| 2026-05-07 03:23 | 60.04446 | 31.60894 | 17527 ft | 356 kts | 268° |
| 2026-05-07 03:23 | 60.04317 | 31.56023 | 17044 ft | 354 kts | 268° |
| 2026-05-07 03:23 | 60.04184 | 31.51106 | 16557 ft | 352 kts | 268° |
| 2026-05-07 03:24 | 60.04053 | 31.46293 | 16335 ft | 341 kts | 268° |
| 2026-05-07 03:24 | 60.03926 | 31.41675 | 16190 ft | 328 kts | 268° |
| 2026-05-07 03:24 | 60.03797 | 31.37174 | 16013 ft | 317 kts | 267° |
| 2026-05-07 03:24 | 60.03581 | 31.32858 | 15723 ft | 311 kts | 264° |
| 2026-05-07 03:25 | 60.03321 | 31.28603 | 15454 ft | 304 kts | 263° |
| 2026-05-07 03:25 | 60.03064 | 31.24462 | 15159 ft | 299 kts | 263° |
| 2026-05-07 03:25 | 60.02808 | 31.20358 | 14847 ft | 294 kts | 263° |
| 2026-05-07 03:25 | 60.02557 | 31.16350 | 14540 ft | 290 kts | 263° |
| 2026-05-07 03:26 | 60.02310 | 31.12416 | 14237 ft | 285 kts | 263° |
| 2026-05-07 03:26 | 60.02064 | 31.08512 | 13935 ft | 281 kts | 263° |
| 2026-05-07 03:26 | 60.01821 | 31.04681 | 13636 ft | 276 kts | 262° |
| 2026-05-07 03:26 | 60.01580 | 31.00904 | 13336 ft | 272 kts | 262° |
| 2026-05-07 03:27 | 60.01340 | 30.97142 | 12984 ft | 270 kts | 261° |
| 2026-05-07 03:27 | 60.01101 | 30.93437 | 12604 ft | 269 kts | 261° |
| 2026-05-07 03:27 | 60.00862 | 30.89768 | 12232 ft | 268 kts | 261° |
| 2026-05-07 03:27 | 60.00618 | 30.86050 | 11796 ft | 269 kts | 261° |
| 2026-05-07 03:28 | 60.00378 | 30.82395 | 11426 ft | 267 kts | 261° |
| 2026-05-07 03:28 | 60.00136 | 30.78724 | 11081 ft | 265 kts | 260° |
| 2026-05-07 03:28 | 59.99897 | 30.75104 | 10748 ft | 262 kts | 260° |
| 2026-05-07 03:28 | 59.99657 | 30.71512 | 10424 ft | 260 kts | 259° |
| 2026-05-07 03:29 | 59.99419 | 30.67948 | 10103 ft | 258 kts | 259° |
| 2026-05-07 03:29 | 59.99180 | 30.64388 | 9762 ft | 257 kts | 259° |
| 2026-05-07 03:29 | 59.98941 | 30.60860 | 9431 ft | 256 kts | 259° |
| 2026-05-07 03:29 | 59.98705 | 30.57377 | 9110 ft | 255 kts | 259° |
| 2026-05-07 03:30 | 59.98466 | 30.53875 | 8791 ft | 254 kts | 259° |
| 2026-05-07 03:30 | 59.98226 | 30.50362 | 8473 ft | 253 kts | 259° |
| 2026-05-07 03:30 | 59.97987 | 30.46886 | 8160 ft | 252 kts | 259° |
| 2026-05-07 03:30 | 59.97749 | 30.43436 | 7854 ft | 252 kts | 259° |
| 2026-05-07 03:31 | 59.97510 | 30.39998 | 7551 ft | 251 kts | 259° |
| 2026-05-07 03:31 | 59.97270 | 30.36579 | 7251 ft | 250 kts | 259° |
| 2026-05-07 03:31 | 59.97025 | 30.33103 | 6950 ft | 250 kts | 258° |
| 2026-05-07 03:31 | 59.96785 | 30.29674 | 6655 ft | 249 kts | 258° |
| 2026-05-07 03:32 | 59.96549 | 30.26288 | 6366 ft | 249 kts | 258° |
| 2026-05-07 03:32 | 59.96305 | 30.22825 | 6071 ft | 248 kts | 258° |
| 2026-05-07 03:32 | 59.96067 | 30.19455 | 5787 ft | 246 kts | 258° |
| 2026-05-07 03:32 | 59.95828 | 30.16083 | 5506 ft | 244 kts | 258° |
| 2026-05-07 03:33 | 59.95588 | 30.12713 | 5225 ft | 242 kts | 258° |
| 2026-05-07 03:33 | 59.95353 | 30.09434 | 4953 ft | 240 kts | 259° |
| 2026-05-07 03:33 | 59.95116 | 30.06151 | 4683 ft | 238 kts | 259° |
| 2026-05-07 03:33 | 59.94881 | 30.02911 | 4418 ft | 236 kts | 259° |
| 2026-05-07 03:34 | 59.94644 | 29.99654 | 4152 ft | 234 kts | 259° |
| 2026-05-07 03:34 | 59.94413 | 29.96484 | 3894 ft | 233 kts | 259° |
| 2026-05-07 03:34 | 59.94181 | 29.93303 | 3636 ft | 231 kts | 259° |
| 2026-05-07 03:34 | 59.93879 | 29.90206 | 3485 ft | 221 kts | 245° |
| 2026-05-07 03:35 | 59.92997 | 29.87877 | 3492 ft | 207 kts | 212° |
| 2026-05-07 03:35 | 59.91691 | 29.86902 | 3495 ft | 202 kts | 181° |
| 2026-05-07 03:35 | 59.90335 | 29.87369 | 3496 ft | 200 kts | 156° |
| 2026-05-07 03:35 | 59.89083 | 29.88554 | 3486 ft | 199 kts | 153° |
| 2026-05-07 03:36 | 59.87836 | 29.89793 | 3369 ft | 201 kts | 153° |
| 2026-05-07 03:36 | 59.86583 | 29.91019 | 3151 ft | 199 kts | 153° |
| 2026-05-07 03:36 | 59.85342 | 29.92215 | 2824 ft | 202 kts | 153° |
| 2026-05-07 03:36 | 59.84219 | 29.93863 | 2458 ft | 204 kts | 124° |
| 2026-05-07 03:37 | 59.83643 | 29.96362 | 2329 ft | 196 kts | 106° |
| 2026-05-07 03:37 | 59.83349 | 29.98845 | 2368 ft | 171 kts | 103° |
| 2026-05-07 03:37 | 59.83085 | 30.01057 | 2218 ft | 156 kts | 105° |
| 2026-05-07 03:37 | 59.82814 | 30.03030 | 2019 ft | 140 kts | 107° |
| 2026-05-07 03:38 | 59.82554 | 30.04799 | 1823 ft | 130 kts | 107° |
| 2026-05-07 03:38 | 59.82298 | 30.06510 | 1655 ft | 128 kts | 107° |
| 2026-05-07 03:38 | 59.82040 | 30.08206 | 1487 ft | 128 kts | 107° |
| 2026-05-07 03:38 | 59.81788 | 30.09882 | 1321 ft | 128 kts | 108° |
| 2026-05-07 03:39 | 59.81534 | 30.11566 | 1154 ft | 127 kts | 107° |
| 2026-05-07 03:39 | 59.81280 | 30.13254 | 985 ft | 127 kts | 106° |
| 2026-05-07 03:39 | 59.81036 | 30.14933 | 815 ft | 127 kts | 107° |
| 2026-05-07 03:39 | 59.80777 | 30.16612 | 640 ft | 126 kts | 107° |
| 2026-05-07 03:40 | 59.80524 | 30.18283 | 474 ft | 126 kts | 107° |
| 2026-05-07 03:40 | 59.80277 | 30.19941 | 305 ft | 124 kts | 106° |
| 2026-05-07 03:40 | 59.80025 | 30.21584 | 140 ft | 122 kts | 105° |
| 2026-05-07 03:40 | 59.79805 | 30.23094 | 81 ft | 92 kts | 107° |
| 2026-05-07 03:41 | 59.79681 | 30.23925 | 84 ft | 52 kts | 107° |
| 2026-05-07 03:41 | 59.79588 | 30.24543 | 84 ft | 30 kts | 107° |
| 2026-05-07 03:41 | 59.79532 | 30.24907 | 84 ft | 23 kts | 107° |
| 2026-05-07 03:41 | 59.79505 | 30.25090 | 84 ft | 12 kts | 105° |
| 2026-05-07 03:42 | 59.79488 | 30.25209 | 84 ft | 9 kts | 105° |
| 2026-05-07 03:42 | 59.79471 | 30.25339 | 84 ft | 10 kts | 96° |
| 2026-05-07 03:42 | 59.79485 | 30.25486 | 84 ft | 11 kts | 74° |
| 2026-05-07 03:42 | 59.79505 | 30.25646 | 84 ft | 12 kts | 77° |
| 2026-05-07 03:43 | 59.79525 | 30.25807 | 87 ft | 11 kts | 75° |
| 2026-05-07 03:43 | 59.79539 | 30.25959 | 87 ft | 11 kts | 87° |
| 2026-05-07 03:43 | 59.79532 | 30.26123 | 87 ft | 12 kts | 104° |
| 2026-05-07 03:43 | 59.79511 | 30.26266 | 87 ft | 2 kts | 105° |
| 2026-05-07 03:44 | 59.79506 | 30.26309 | 87 ft | 3 kts | 88° |
| 2026-05-07 03:44 | 59.79526 | 30.26354 | 87 ft | 5 kts | 32° |
| 2026-05-07 03:44 | 59.79564 | 30.26382 | 87 ft | 6 kts | 16° |
| 2026-05-07 03:44 | 59.79613 | 30.26411 | 87 ft | 8 kts | 16° |
| 2026-05-07 03:45 | 59.79671 | 30.26445 | 87 ft | 9 kts | 16° |
| 2026-05-07 03:45 | 59.79738 | 30.26485 | 87 ft | 10 kts | 17° |
| 2026-05-07 03:45 | 59.79815 | 30.26530 | 87 ft | 12 kts | 17° |
| 2026-05-07 03:45 | 59.79899 | 30.26579 | 87 ft | 13 kts | 16° |
| 2026-05-07 03:46 | 59.79977 | 30.26625 | 87 ft | 8 kts | 17° |
| 2026-05-07 03:46 | 59.80017 | 30.26650 | 87 ft | 3 kts | 25° |
| 2026-05-07 03:46 | 59.80027 | 30.26708 | 87 ft | 5 kts | 91° |
| 2026-05-07 03:46 | 59.80023 | 30.26794 | 87 ft | 6 kts | 96° |
| 2026-05-07 03:47 | 59.80020 | 30.26850 | 87 ft | 1 kts | 96° |
| 2026-05-07 03:47 | 59.80019 | 30.26861 | 86 ft | 0 kts | 96° |